createdAt,value
2022-08-08T00:06:56.030Z,20.83
2022-08-08T00:17:22.660Z,20.87
2022-08-08T00:27:34.860Z,20.84
2022-08-08T00:38:32.423Z,20.35
2022-08-08T00:49:21.922Z,20.31
2022-08-08T00:59:50.777Z,20.61
2022-08-08T01:10:05.908Z,20.28
2022-08-08T01:20:15.525Z,20.32
2022-08-08T01:30:24.718Z,20.60
2022-08-08T01:40:42.506Z,20.69
2022-08-08T01:51:00.005Z,20.64
2022-08-08T02:01:27.852Z,20.62
2022-08-08T02:12:00.174Z,20.38
2022-08-08T02:22:31.879Z,20.29
2022-08-08T02:32:57.173Z,20.43
2022-08-08T02:44:35.792Z,20.48
2022-08-08T02:54:08.596Z,20.62
2022-08-08T03:05:05.295Z,20.62
2022-08-08T03:15:58.629Z,20.56
2022-08-08T03:26:05.314Z,20.59
2022-08-08T03:36:19.525Z,20.63
2022-08-08T03:46:26.535Z,20.57
2022-08-08T03:56:39.086Z,20.57
2022-08-08T04:06:56.929Z,20.60
2022-08-08T04:17:22.799Z,20.70
2022-08-08T04:28:01.322Z,20.50
2022-08-08T04:38:01.365Z,20.67
2022-08-08T04:48:07.721Z,20.77
2022-08-08T04:58:17.713Z,20.85
2022-08-08T05:08:26.941Z,21.01
2022-08-08T05:18:35.173Z,21.27
2022-08-08T05:28:56.604Z,21.89
2022-08-08T05:39:07.221Z,22.19
2022-08-08T05:49:17.650Z,21.57
2022-08-08T06:00:00.866Z,22.65
2022-08-08T06:10:00.169Z,22.97
2022-08-08T06:20:11.663Z,22.70
2022-08-08T06:30:20.282Z,23.27
2022-08-08T06:40:36.821Z,22.00
2022-08-08T06:50:44.020Z,22.80
2022-08-08T07:00:51.950Z,22.23
2022-08-08T07:11:00.837Z,21.21
2022-08-08T07:21:09.956Z,21.96
2022-08-08T07:31:26.487Z,22.30
2022-08-08T07:41:58.898Z,22.12
2022-08-08T07:52:00.666Z,22.97
2022-08-08T08:02:34.328Z,24.73
2022-08-08T08:12:42.211Z,23.46
2022-08-08T08:22:49.928Z,23.54
2022-08-08T08:32:56.271Z,23.89
2022-08-08T08:43:09.028Z,24.05
2022-08-08T08:53:55.045Z,24.46
2022-08-08T09:03:51.487Z,24.56
2022-08-08T09:13:58.123Z,24.87
2022-08-08T09:24:04.740Z,23.07
2022-08-08T09:34:31.565Z,24.27
2022-08-08T09:45:04.125Z,23.27
2022-08-08T09:55:17.448Z,23.92
2022-08-08T10:05:41.291Z,24.84
2022-08-08T10:16:00.451Z,25.14
2022-08-08T10:26:25.728Z,23.92
2022-08-08T10:36:34.754Z,23.72
2022-08-08T10:56:47.339Z,23.98
2022-08-08T11:07:02.131Z,24.55
2022-08-08T11:17:14.848Z,23.45
2022-08-08T11:27:29.210Z,25.07
2022-08-08T11:38:35.120Z,25.18
2022-08-08T11:48:10.902Z,26.17
2022-08-08T11:58:37.623Z,25.90
2022-08-08T12:08:44.371Z,26.23
2022-08-08T12:18:52.265Z,27.13
2022-08-08T12:28:59.998Z,26.75
2022-08-08T12:39:06.695Z,26.91
2022-08-08T12:49:43.275Z,26.68
2022-08-08T13:00:04.535Z,26.69
2022-08-08T13:10:17.195Z,25.52
2022-08-08T13:20:27.326Z,26.14
2022-08-08T13:30:34.153Z,26.08
2022-08-08T13:40:41.448Z,25.49
2022-08-08T13:50:56.931Z,27.06
2022-08-08T14:01:18.086Z,27.65
2022-08-08T14:11:27.941Z,26.46
2022-08-08T14:21:52.118Z,25.81
2022-08-08T14:32:09.344Z,25.88
2022-08-08T14:42:31.212Z,26.30
2022-08-08T14:52:46.452Z,26.09
2022-08-08T15:02:58.539Z,26.57
2022-08-08T15:13:07.963Z,25.96
2022-08-08T15:23:14.885Z,25.42
2022-08-08T15:33:38.135Z,25.91
2022-08-08T15:44:00.865Z,25.58
2022-08-08T15:54:37.201Z,25.31
2022-08-08T16:04:33.618Z,25.24
2022-08-08T16:14:41.246Z,25.03
2022-08-08T16:25:05.783Z,24.85
2022-08-08T16:35:13.693Z,24.87
2022-08-08T16:46:36.936Z,24.78
2022-08-08T16:55:58.113Z,24.65
2022-08-08T17:06:35.296Z,24.13
2022-08-08T17:16:33.446Z,23.89
2022-08-08T17:26:40.024Z,23.72
2022-08-08T17:37:00.060Z,23.99
2022-08-08T17:47:09.728Z,23.68
2022-08-08T17:57:16.227Z,23.61
2022-08-08T18:08:02.845Z,23.32
2022-08-08T18:18:09.216Z,23.33
2022-08-08T18:28:15.163Z,23.09
2022-08-08T18:38:29.866Z,23.23
2022-08-08T18:48:36.284Z,23.13
2022-08-08T18:58:42.577Z,23.04
2022-08-08T19:08:49.111Z,22.99
2022-08-08T19:19:01.956Z,22.85
2022-08-08T19:29:10.090Z,22.77
2022-08-08T19:39:16.445Z,22.54
2022-08-08T19:49:25.833Z,22.45
2022-08-08T19:59:34.951Z,22.38
2022-08-08T20:09:45.225Z,22.22
2022-08-08T20:20:02.763Z,22.12
2022-08-08T20:30:53.900Z,21.99
2022-08-08T20:40:39.685Z,21.88
2022-08-08T20:50:46.510Z,21.79
2022-08-08T21:00:52.865Z,21.67
2022-08-08T21:11:00.477Z,21.63
2022-08-08T21:21:41.005Z,21.55
2022-08-08T21:31:57.531Z,21.56
2022-08-08T21:42:05.246Z,21.59
2022-08-08T21:54:27.269Z,21.49
2022-08-08T22:02:41.118Z,21.54
2022-08-08T22:12:47.569Z,21.41
2022-08-08T22:22:56.152Z,21.44
2022-08-08T22:33:03.251Z,21.34
2022-08-08T22:43:28.470Z,21.26
2022-08-08T22:54:33.027Z,21.26
2022-08-08T23:04:04.969Z,21.29
2022-08-08T23:14:11.850Z,21.31
2022-08-08T23:24:22.373Z,21.24
2022-08-08T23:34:29.478Z,21.26
2022-08-08T23:44:38.593Z,21.29
2022-08-08T23:55:00.098Z,21.21
